createdAt,value
2022-11-30T00:01:14.832Z,20.00
2022-11-30T00:03:41.709Z,21.90
2022-11-30T00:06:11.022Z,20.80
2022-11-30T00:08:37.534Z,19.50
2022-11-30T00:11:25.527Z,23.70
2022-11-30T00:13:52.074Z,21.13
2022-11-30T00:16:18.514Z,19.70
2022-11-30T00:18:45.103Z,19.73
2022-11-30T00:21:13.574Z,20.63
2022-11-30T00:23:42.265Z,22.10
2022-11-30T00:26:12.292Z,19.60
2022-11-30T00:28:39.847Z,19.97
2022-11-30T00:31:10.205Z,22.03
2022-11-30T00:33:37.642Z,22.07
2022-11-30T00:36:18.210Z,20.73
2022-11-30T00:38:45.458Z,22.07
2022-11-30T00:41:12.292Z,22.60
2022-11-30T00:43:38.941Z,20.67
2022-11-30T00:46:06.111Z,21.57
2022-11-30T00:48:32.716Z,21.37
2022-11-30T00:50:59.152Z,21.77
2022-11-30T00:53:25.607Z,22.10
2022-11-30T00:55:52.136Z,19.47
2022-11-30T00:58:19.698Z,20.37
2022-11-30T01:00:46.528Z,19.20
2022-11-30T01:03:13.346Z,20.53
2022-11-30T01:05:40.019Z,19.00
2022-11-30T01:08:08.749Z,18.97
2022-11-30T01:10:38.013Z,19.40
2022-11-30T01:13:04.972Z,18.63
2022-11-30T01:15:32.175Z,19.27
2022-11-30T01:18:01.431Z,19.57
2022-11-30T01:20:27.840Z,18.40
2022-11-30T01:22:55.497Z,20.20
2022-11-30T01:25:22.132Z,20.83
2022-11-30T01:27:49.614Z,21.17
2022-11-30T01:30:16.355Z,21.20
2022-11-30T01:32:42.824Z,21.70
2022-11-30T01:35:10.227Z,18.97
2022-11-30T01:37:36.881Z,19.47
2022-11-30T01:40:04.253Z,20.77
2022-11-30T01:42:32.873Z,21.00
2022-11-30T01:45:01.512Z,19.27
2022-11-30T01:47:43.186Z,18.67
2022-11-30T01:50:14.348Z,18.20
2022-11-30T01:52:48.640Z,18.10
2022-11-30T01:55:42.561Z,18.47
2022-11-30T01:58:30.565Z,16.97
2022-11-30T02:00:56.953Z,16.87
2022-11-30T02:03:35.342Z,17.37
2022-11-30T02:06:01.932Z,19.50
2022-11-30T02:08:29.944Z,20.10
2022-11-30T02:11:02.809Z,19.70
2022-11-30T02:13:32.335Z,19.97
2022-11-30T02:16:17.346Z,19.43
2022-11-30T02:19:02.255Z,17.67
2022-11-30T02:21:46.030Z,19.87
2022-11-30T02:24:24.606Z,18.00
2022-11-30T02:27:28.660Z,20.10
2022-11-30T02:30:09.628Z,20.10
2022-11-30T02:32:48.150Z,19.30
2022-11-30T02:35:19.067Z,19.20
2022-11-30T02:37:46.201Z,20.70
2022-11-30T02:40:17.827Z,21.30
2022-11-30T02:42:44.478Z,21.10
2022-11-30T02:45:12.000Z,20.37
2022-11-30T02:47:50.772Z,21.53
2022-11-30T02:50:31.327Z,22.77
2022-11-30T02:52:57.927Z,22.20
2022-11-30T02:55:24.871Z,21.37
2022-11-30T02:57:51.227Z,22.03
2022-11-30T03:00:18.151Z,21.27
2022-11-30T03:02:44.720Z,24.27
2022-11-30T03:05:11.227Z,24.50
2022-11-30T03:07:38.202Z,24.30
2022-11-30T03:10:06.115Z,24.77
2022-11-30T03:12:32.713Z,25.70
2022-11-30T03:14:59.129Z,26.50
2022-11-30T03:17:25.727Z,25.53
2022-11-30T03:19:52.091Z,26.57
2022-11-30T03:22:18.534Z,26.30
2022-11-30T03:24:45.050Z,25.93
2022-11-30T03:27:12.302Z,27.70
2022-11-30T03:29:39.299Z,28.17
2022-11-30T03:32:06.115Z,28.20
2022-11-30T03:34:32.652Z,30.00
2022-11-30T03:36:59.399Z,27.33
2022-11-30T03:39:25.917Z,28.77
2022-11-30T03:41:52.317Z,27.67
2022-11-30T03:44:19.533Z,29.07
2022-11-30T03:46:45.982Z,30.07
2022-11-30T03:49:12.480Z,28.80
2022-11-30T03:51:38.941Z,27.63
2022-11-30T03:54:05.411Z,27.60
2022-11-30T03:56:31.813Z,28.50
2022-11-30T03:58:58.263Z,29.93
2022-11-30T04:01:24.806Z,27.67
2022-11-30T04:03:52.370Z,29.27
2022-11-30T04:06:20.112Z,28.03
2022-11-30T04:08:47.594Z,27.83
2022-11-30T04:11:14.301Z,27.30
2022-11-30T04:13:42.194Z,28.47
2022-11-30T04:16:09.376Z,27.93
2022-11-30T04:18:37.082Z,30.07
2022-11-30T04:21:04.457Z,29.90
2022-11-30T04:23:33.383Z,30.07
2022-11-30T04:26:01.986Z,30.33
2022-11-30T04:28:28.350Z,31.70
2022-11-30T04:30:55.198Z,30.00
2022-11-30T04:33:21.940Z,29.17
2022-11-30T04:35:53.071Z,30.07
2022-11-30T04:38:19.443Z,29.37
2022-11-30T04:40:45.856Z,28.13
2022-11-30T04:43:12.903Z,29.63
2022-11-30T04:45:39.950Z,27.40
2022-11-30T04:48:06.730Z,27.80
2022-11-30T04:50:33.748Z,28.40
2022-11-30T04:53:00.146Z,26.57
2022-11-30T04:55:26.604Z,28.27
2022-11-30T04:57:52.953Z,25.50
2022-11-30T05:00:19.934Z,25.10
2022-11-30T05:02:52.514Z,27.47
2022-11-30T05:05:20.423Z,26.23
2022-11-30T05:07:51.354Z,23.60
2022-11-30T05:10:18.101Z,23.50
2022-11-30T05:12:44.846Z,24.20
2022-11-30T05:15:11.290Z,24.53
2022-11-30T05:17:37.751Z,24.37
2022-11-30T05:20:04.722Z,27.10
2022-11-30T05:22:31.193Z,25.30
2022-11-30T05:24:57.611Z,26.23
2022-11-30T05:27:24.015Z,26.80
2022-11-30T05:29:50.393Z,26.37
2022-11-30T05:32:16.851Z,26.70
2022-11-30T05:34:50.509Z,26.40
2022-11-30T05:37:18.093Z,23.97
2022-11-30T05:39:44.603Z,23.37
2022-11-30T05:42:11.044Z,25.40
2022-11-30T05:44:37.623Z,23.87
2022-11-30T05:47:04.243Z,26.80
2022-11-30T05:49:30.697Z,25.43
2022-11-30T05:51:57.132Z,25.87
2022-11-30T05:54:23.542Z,23.80
2022-11-30T05:56:54.488Z,27.23
2022-11-30T05:59:21.859Z,22.97
2022-11-30T06:01:48.575Z,24.30
2022-11-30T06:04:15.119Z,25.73
2022-11-30T06:06:41.515Z,22.73
2022-11-30T06:09:08.089Z,25.53
2022-11-30T06:11:34.487Z,23.13
2022-11-30T06:14:00.952Z,23.47
2022-11-30T06:16:27.465Z,24.80
2022-11-30T06:18:53.939Z,24.57
2022-11-30T06:21:24.458Z,25.03
2022-11-30T06:23:51.975Z,25.83
2022-11-30T06:26:18.379Z,24.93
2022-11-30T06:28:48.259Z,23.40
2022-11-30T06:31:16.356Z,22.47
2022-11-30T06:33:43.299Z,21.90
2022-11-30T06:36:09.932Z,23.33
2022-11-30T06:38:36.635Z,21.63
2022-11-30T06:41:05.727Z,22.83
2022-11-30T06:43:36.727Z,19.43
2022-11-30T06:46:04.785Z,20.73
2022-11-30T06:48:31.625Z,20.57
2022-11-30T06:50:58.912Z,20.33
2022-11-30T06:53:27.157Z,17.77
2022-11-30T06:55:53.851Z,18.20
2022-11-30T06:58:20.289Z,18.57
2022-11-30T07:00:46.765Z,17.03
2022-11-30T07:03:13.769Z,17.33
2022-11-30T07:05:45.690Z,20.10
2022-11-30T07:08:16.324Z,17.23
2022-11-30T07:10:45.001Z,15.83
2022-11-30T07:13:15.791Z,17.00
2022-11-30T07:15:42.844Z,16.53
2022-11-30T07:18:10.545Z,16.00
2022-11-30T07:20:37.907Z,19.00
2022-11-30T07:23:23.877Z,17.23
2022-11-30T07:26:07.130Z,15.50
2022-11-30T07:28:36.073Z,16.57
2022-11-30T07:31:16.193Z,17.70
2022-11-30T07:33:43.544Z,17.60
2022-11-30T07:36:10.774Z,18.93
2022-11-30T07:38:38.125Z,18.20
2022-11-30T07:41:05.227Z,18.43
2022-11-30T07:43:32.571Z,17.67
2022-11-30T07:46:00.154Z,17.60
2022-11-30T07:48:26.753Z,18.00
2022-11-30T07:50:53.211Z,16.17
2022-11-30T07:53:19.737Z,15.83
2022-11-30T07:55:46.263Z,17.87
2022-11-30T07:58:17.258Z,16.30
2022-11-30T08:00:44.183Z,15.73
2022-11-30T08:03:10.709Z,16.70
2022-11-30T08:05:37.226Z,18.13
2022-11-30T08:08:03.690Z,15.67
2022-11-30T08:10:30.075Z,15.70
2022-11-30T08:12:56.505Z,17.20
2022-11-30T08:15:27.474Z,16.20
2022-11-30T08:18:00.213Z,17.90
2022-11-30T08:20:26.634Z,17.07
2022-11-30T08:22:53.000Z,18.20
2022-11-30T08:25:19.420Z,18.90
2022-11-30T08:27:45.804Z,20.10
2022-11-30T08:30:12.420Z,19.50
2022-11-30T08:32:38.842Z,19.70
2022-11-30T08:35:05.779Z,21.00
2022-11-30T08:37:32.216Z,21.30
2022-11-30T08:39:58.662Z,23.13
2022-11-30T08:42:25.050Z,21.10
2022-11-30T08:44:51.418Z,21.10
2022-11-30T08:47:17.859Z,22.60
2022-11-30T08:49:44.331Z,21.87
2022-11-30T08:52:18.699Z,24.07
2022-11-30T08:54:47.949Z,24.47
2022-11-30T08:57:17.476Z,22.40
2022-11-30T08:59:44.416Z,23.00
2022-11-30T09:02:13.335Z,22.17
2022-11-30T09:04:39.790Z,23.50
2022-11-30T09:07:06.226Z,24.53
2022-11-30T09:09:32.678Z,21.70
2022-11-30T09:11:59.125Z,22.07
2022-11-30T09:14:25.532Z,21.43
2022-11-30T09:16:53.642Z,21.50
2022-11-30T09:19:20.753Z,23.17
2022-11-30T09:21:52.028Z,23.80
2022-11-30T09:24:19.141Z,23.70
2022-11-30T09:26:45.658Z,24.37
2022-11-30T09:29:12.049Z,24.17
2022-11-30T09:31:38.513Z,26.33
2022-11-30T09:34:05.286Z,26.70
2022-11-30T09:36:32.963Z,25.13
2022-11-30T09:38:59.391Z,27.80
2022-11-30T09:41:28.818Z,25.77
2022-11-30T09:44:13.695Z,27.50
2022-11-30T09:46:48.870Z,28.50
2022-11-30T09:49:26.713Z,28.47
2022-11-30T09:51:58.579Z,30.20
2022-11-30T09:54:39.958Z,31.60
2022-11-30T09:57:33.828Z,31.30
2022-11-30T10:00:05.385Z,30.20
2022-11-30T10:02:37.973Z,29.10
2022-11-30T10:05:13.561Z,31.33
2022-11-30T10:08:10.591Z,28.67
2022-11-30T10:10:45.603Z,29.23
2022-11-30T10:13:43.012Z,27.57
2022-11-30T10:16:26.481Z,25.50
2022-11-30T10:19:00.553Z,23.97
2022-11-30T10:21:48.454Z,26.10
2022-11-30T10:24:35.900Z,22.67
2022-11-30T10:27:15.907Z,22.53
2022-11-30T10:29:43.496Z,22.67
2022-11-30T10:32:17.955Z,22.40
2022-11-30T10:34:51.663Z,22.87
2022-11-30T10:37:27.371Z,23.63
2022-11-30T10:40:02.961Z,22.07
2022-11-30T10:42:39.745Z,23.33
2022-11-30T10:45:11.597Z,23.10
2022-11-30T10:47:46.407Z,23.20
2022-11-30T10:50:17.879Z,21.73
2022-11-30T10:52:47.958Z,20.73
2022-11-30T10:55:35.972Z,19.90
2022-11-30T10:58:09.815Z,19.73
2022-11-30T11:00:36.384Z,19.97
2022-11-30T11:03:02.862Z,19.60
2022-11-30T11:05:31.099Z,20.93
2022-11-30T11:08:18.253Z,20.93
2022-11-30T11:10:44.805Z,20.90
2022-11-30T11:13:18.631Z,21.40
2022-11-30T11:16:02.079Z,22.03
2022-11-30T11:18:30.456Z,20.37
2022-11-30T11:21:14.407Z,22.50
2022-11-30T11:23:42.662Z,22.70
2022-11-30T11:26:25.198Z,20.50
2022-11-30T11:28:56.728Z,20.57
2022-11-30T11:31:44.068Z,21.73
2022-11-30T11:34:39.642Z,21.03
2022-11-30T11:37:22.915Z,21.83
2022-11-30T11:40:04.011Z,22.37
2022-11-30T11:42:35.094Z,21.63
2022-11-30T11:45:02.940Z,23.33
2022-11-30T11:47:36.840Z,24.27
2022-11-30T11:50:12.459Z,22.53
2022-11-30T11:52:39.134Z,21.37
2022-11-30T11:55:14.123Z,21.00
2022-11-30T11:58:00.665Z,22.53
2022-11-30T12:00:27.160Z,21.80
2022-11-30T12:03:25.143Z,23.40
2022-11-30T12:05:53.898Z,22.80
2022-11-30T12:08:35.789Z,23.20
2022-11-30T12:11:14.082Z,23.33
2022-11-30T12:13:45.898Z,22.33
2022-11-30T12:16:12.561Z,21.87
2022-11-30T12:18:50.148Z,25.80
2022-11-30T12:21:31.308Z,24.50
2022-11-30T12:24:12.337Z,25.97
2022-11-30T12:26:49.003Z,23.50
2022-11-30T12:29:23.603Z,23.50
2022-11-30T12:32:01.207Z,23.63
2022-11-30T12:34:40.590Z,24.20
2022-11-30T12:37:47.440Z,26.40
2022-11-30T12:40:32.740Z,23.90
2022-11-30T12:43:29.162Z,23.50
2022-11-30T12:46:07.426Z,26.13
2022-11-30T12:49:06.188Z,24.97
2022-11-30T12:52:22.610Z,25.07
2022-11-30T12:54:53.989Z,25.30
2022-11-30T12:57:27.432Z,24.70
2022-11-30T13:00:09.315Z,26.67
2022-11-30T13:03:06.753Z,25.73
2022-11-30T13:05:37.993Z,27.17
2022-11-30T13:08:19.099Z,25.37
2022-11-30T13:10:49.522Z,26.73
2022-11-30T13:13:28.138Z,27.10
2022-11-30T13:15:55.645Z,26.97
2022-11-30T13:18:24.075Z,28.37
2022-11-30T13:20:50.498Z,26.63
2022-11-30T13:23:22.170Z,25.13
2022-11-30T13:26:10.944Z,27.50
2022-11-30T13:28:43.398Z,27.03
2022-11-30T13:31:27.671Z,27.10
2022-11-30T13:33:54.156Z,26.13
2022-11-30T13:36:42.316Z,28.40
2022-11-30T13:39:14.738Z,27.80
2022-11-30T13:41:50.368Z,28.23
2022-11-30T13:44:24.602Z,28.53
2022-11-30T13:46:53.324Z,28.43
2022-11-30T13:49:27.339Z,28.97
2022-11-30T13:52:20.864Z,27.97
2022-11-30T13:54:43.879Z,29.70
2022-11-30T13:57:25.304Z,29.03
2022-11-30T13:59:56.282Z,29.93
2022-11-30T14:02:52.070Z,28.47
2022-11-30T14:05:22.670Z,28.70
2022-11-30T14:07:52.608Z,30.23
2022-11-30T14:10:45.855Z,28.17
2022-11-30T14:13:13.431Z,27.50
2022-11-30T14:15:40.689Z,28.03
2022-11-30T14:18:09.829Z,30.23
2022-11-30T14:20:42.766Z,29.73
2022-11-30T14:23:17.228Z,29.30
2022-11-30T14:25:49.723Z,31.90
2022-11-30T14:28:20.061Z,31.73
2022-11-30T14:30:48.051Z,34.20
2022-11-30T14:33:19.987Z,32.93
2022-11-30T14:35:54.029Z,32.73
2022-11-30T14:38:27.617Z,31.53
2022-11-30T14:40:54.569Z,33.60
2022-11-30T14:43:21.138Z,32.90
2022-11-30T14:46:10.182Z,33.43
2022-11-30T14:48:39.399Z,32.00
2022-11-30T14:51:05.898Z,33.50
2022-11-30T14:54:05.021Z,33.17
2022-11-30T14:56:52.160Z,31.17
2022-11-30T14:59:45.009Z,30.57
2022-11-30T15:02:37.826Z,32.10
2022-11-30T15:05:09.663Z,32.03
2022-11-30T15:07:37.018Z,34.83
2022-11-30T15:10:13.755Z,30.70
2022-11-30T15:12:41.537Z,35.23
2022-11-30T15:15:20.922Z,34.10
2022-11-30T15:18:15.027Z,32.43
2022-11-30T15:21:05.923Z,35.50
2022-11-30T15:23:32.416Z,31.80
2022-11-30T15:26:04.598Z,34.07
2022-11-30T15:28:34.207Z,34.47
2022-11-30T15:31:04.247Z,31.73
2022-11-30T15:33:40.593Z,30.97
2022-11-30T15:36:31.391Z,30.97
2022-11-30T15:38:54.167Z,31.20
2022-11-30T15:41:25.312Z,31.37
2022-11-30T15:43:54.448Z,35.00
2022-11-30T15:46:46.422Z,35.80
2022-11-30T15:49:17.840Z,36.93
2022-11-30T15:51:47.120Z,35.27
2022-11-30T15:54:15.274Z,37.10
2022-11-30T15:56:41.677Z,35.37
2022-11-30T15:59:14.106Z,39.20
2022-11-30T16:02:02.360Z,34.63
2022-11-30T16:04:49.444Z,33.57
2022-11-30T16:07:19.337Z,36.33
2022-11-30T16:09:46.130Z,37.17
2022-11-30T16:12:27.286Z,39.43
2022-11-30T16:14:53.635Z,36.23
2022-11-30T16:17:20.000Z,36.70
2022-11-30T16:19:46.738Z,38.40
2022-11-30T16:22:15.473Z,35.70
2022-11-30T16:24:42.220Z,37.17
2022-11-30T16:27:26.651Z,35.63
2022-11-30T16:29:53.220Z,36.43
2022-11-30T16:32:19.767Z,36.60
2022-11-30T16:34:48.111Z,37.17
2022-11-30T16:37:14.708Z,36.80
2022-11-30T16:39:41.087Z,37.50
2022-11-30T16:42:11.610Z,37.10
2022-11-30T16:44:38.546Z,38.40
2022-11-30T16:47:05.042Z,37.10
2022-11-30T16:49:31.424Z,37.10
2022-11-30T16:51:57.780Z,40.73
2022-11-30T16:54:24.350Z,36.23
2022-11-30T16:56:50.722Z,38.03
2022-11-30T16:59:17.293Z,35.20
2022-11-30T17:01:52.887Z,36.83
2022-11-30T17:04:25.981Z,36.63
2022-11-30T17:06:58.756Z,35.93
2022-11-30T17:09:30.198Z,37.13
2022-11-30T17:11:56.699Z,36.17
2022-11-30T17:14:23.135Z,35.77
2022-11-30T17:16:49.643Z,33.97
2022-11-30T17:19:16.092Z,33.93
2022-11-30T17:21:44.511Z,37.30
2022-11-30T17:24:11.889Z,37.87
2022-11-30T17:26:38.443Z,33.00
2022-11-30T17:29:04.934Z,34.03
2022-11-30T17:31:31.488Z,36.73
2022-11-30T17:33:58.132Z,35.03
2022-11-30T17:36:24.638Z,34.07
2022-11-30T17:38:51.191Z,35.57
2022-11-30T17:41:19.885Z,35.60
2022-11-30T17:43:47.659Z,35.93
2022-11-30T17:46:16.618Z,34.70
2022-11-30T17:48:43.712Z,36.53
2022-11-30T17:51:11.755Z,36.50
2022-11-30T17:53:39.626Z,33.87
2022-11-30T17:56:15.315Z,35.30
2022-11-30T17:58:44.230Z,36.00
2022-11-30T18:01:19.226Z,37.27
2022-11-30T18:03:46.066Z,34.37
2022-11-30T18:06:13.400Z,35.07
2022-11-30T18:08:40.199Z,35.93
2022-11-30T18:11:14.767Z,32.23
2022-11-30T18:13:41.618Z,33.50
2022-11-30T18:16:17.221Z,34.57
2022-11-30T18:18:47.696Z,33.00
2022-11-30T18:21:17.533Z,33.20
2022-11-30T18:23:44.060Z,35.43
2022-11-30T18:26:16.541Z,32.77
2022-11-30T18:28:43.909Z,33.17
2022-11-30T18:31:10.411Z,31.90
2022-11-30T18:33:37.704Z,32.30
2022-11-30T18:36:08.286Z,31.97
2022-11-30T18:38:38.416Z,31.33
2022-11-30T18:41:05.696Z,30.87
2022-11-30T18:43:33.488Z,32.87
2022-11-30T18:46:04.363Z,30.93
2022-11-30T18:48:30.826Z,32.13
2022-11-30T18:50:57.645Z,29.20
2022-11-30T18:53:24.112Z,30.17
2022-11-30T18:55:50.641Z,28.83
2022-11-30T18:58:17.222Z,29.00
2022-11-30T19:00:43.636Z,28.57
2022-11-30T19:03:10.115Z,29.63
2022-11-30T19:05:38.226Z,30.20
2022-11-30T19:08:07.412Z,29.70
2022-11-30T19:10:35.856Z,29.77
2022-11-30T19:13:04.054Z,29.47
2022-11-30T19:15:39.824Z,27.23
2022-11-30T19:18:06.418Z,28.30
2022-11-30T19:20:40.786Z,29.13
2022-11-30T19:23:07.322Z,27.90
2022-11-30T19:25:33.764Z,29.87
2022-11-30T19:28:00.179Z,29.00
2022-11-30T19:30:26.671Z,29.87
2022-11-30T19:32:53.671Z,29.00
2022-11-30T19:35:21.007Z,29.97
2022-11-30T19:37:47.355Z,30.10
2022-11-30T19:40:13.786Z,31.23
2022-11-30T19:42:40.203Z,29.93
2022-11-30T19:45:07.240Z,30.83
2022-11-30T19:47:33.603Z,30.33
2022-11-30T19:50:00.029Z,33.00
2022-11-30T19:52:26.452Z,29.70
2022-11-30T19:54:52.826Z,29.90
2022-11-30T19:57:19.218Z,30.20
2022-11-30T19:59:46.260Z,28.83
2022-11-30T20:02:12.744Z,26.83
2022-11-30T20:04:39.510Z,27.40
2022-11-30T20:07:05.915Z,26.30
2022-11-30T20:09:32.541Z,27.23
2022-11-30T20:11:58.983Z,25.63
2022-11-30T20:14:25.354Z,28.07
2022-11-30T20:16:52.955Z,25.77
2022-11-30T20:19:19.407Z,28.50
2022-11-30T20:21:46.054Z,26.60
2022-11-30T20:24:12.460Z,28.23
2022-11-30T20:26:41.479Z,26.40
2022-11-30T20:29:12.919Z,24.90
2022-11-30T20:31:39.559Z,24.43
2022-11-30T20:34:08.035Z,24.77
2022-11-30T20:36:35.358Z,25.53
2022-11-30T20:39:02.864Z,24.30
2022-11-30T20:41:29.327Z,26.50
2022-11-30T20:43:56.133Z,26.57
2022-11-30T20:46:28.586Z,25.97
2022-11-30T20:48:55.992Z,24.77
2022-11-30T20:51:32.817Z,23.67
2022-11-30T20:54:05.616Z,23.20
2022-11-30T20:56:37.028Z,22.00
2022-11-30T20:59:06.189Z,24.60
2022-11-30T21:01:33.300Z,23.63
2022-11-30T21:04:00.722Z,22.37
2022-11-30T21:06:29.310Z,21.70
2022-11-30T21:08:55.829Z,21.17
2022-11-30T21:11:22.710Z,21.00
2022-11-30T21:13:50.788Z,19.57
2022-11-30T21:16:25.641Z,20.80
2022-11-30T21:18:54.360Z,19.30
2022-11-30T21:21:24.285Z,20.27
2022-11-30T21:23:50.954Z,19.57
2022-11-30T21:26:23.404Z,20.57
2022-11-30T21:28:53.611Z,19.40
2022-11-30T21:31:21.513Z,20.07
2022-11-30T21:33:52.869Z,20.37
2022-11-30T21:36:21.083Z,19.60
2022-11-30T21:38:47.547Z,19.87
2022-11-30T21:41:14.792Z,19.70
2022-11-30T21:43:42.042Z,20.03
2022-11-30T21:46:15.297Z,19.20
2022-11-30T21:48:44.184Z,18.50
2022-11-30T21:51:13.523Z,19.20
2022-11-30T21:53:42.711Z,19.80
2022-11-30T21:56:12.686Z,17.53
2022-11-30T21:58:41.077Z,17.97
2022-11-30T22:01:12.059Z,18.50
2022-11-30T22:03:38.709Z,19.97
2022-11-30T22:06:07.875Z,18.10
2022-11-30T22:08:34.812Z,18.93
2022-11-30T22:11:05.876Z,17.30
2022-11-30T22:13:32.461Z,16.30
2022-11-30T22:16:07.837Z,17.33
2022-11-30T22:18:34.906Z,17.17
2022-11-30T22:21:23.684Z,17.70
2022-11-30T22:24:02.106Z,16.30
2022-11-30T22:26:34.586Z,16.00
2022-11-30T22:29:15.946Z,16.80
2022-11-30T22:31:44.707Z,15.90
2022-11-30T22:34:11.682Z,17.00
2022-11-30T22:36:40.168Z,15.23
2022-11-30T22:39:12.407Z,16.40
2022-11-30T22:41:40.324Z,17.43
2022-11-30T22:44:07.121Z,15.47
2022-11-30T22:46:35.411Z,16.27
2022-11-30T22:49:03.711Z,15.80
2022-11-30T22:51:32.371Z,15.40
2022-11-30T22:53:59.490Z,14.57
2022-11-30T22:56:29.010Z,15.13
2022-11-30T22:58:58.891Z,14.10
2022-11-30T23:01:34.187Z,13.40
2022-11-30T23:04:12.204Z,12.77
2022-11-30T23:06:40.599Z,12.93
2022-11-30T23:09:12.123Z,12.07
2022-11-30T23:11:38.698Z,12.50
2022-11-30T23:14:07.826Z,12.87
2022-11-30T23:16:35.619Z,13.03
2022-11-30T23:19:02.115Z,11.43
2022-11-30T23:21:31.457Z,11.70
2022-11-30T23:24:02.615Z,11.97
2022-11-30T23:26:39.068Z,10.80
2022-11-30T23:29:08.343Z,11.27
2022-11-30T23:31:38.426Z,12.63
2022-11-30T23:34:10.611Z,12.30
2022-11-30T23:36:37.451Z,11.53
2022-11-30T23:39:07.792Z,10.40
2022-11-30T23:41:34.196Z,12.80
2022-11-30T23:44:00.836Z,12.20
2022-11-30T23:46:27.641Z,11.40
2022-11-30T23:48:55.633Z,12.00
2022-11-30T23:51:22.863Z,11.57
2022-11-30T23:53:49.241Z,11.10
2022-11-30T23:56:17.637Z,11.43
2022-11-30T23:58:44.323Z,12.00
